Time;durP1;ratioP1;P1;durP2;ratioP2;P2;SDS_P1;SDS_P2;PMS_P1;PMS_P2;Temp;Humidity;BMP_temperature;BMP_pressure;BME280_temperature;BME280_humidity;BME280_pressure;Samples;Min_cycle;Max_cycle;Signal;HPM_P1;HPM_P2
2021/12/20 00:00:48;;;;;;;;;;;20.30;35.30;;;;;;482222;246;1254;-46
2021/12/20 00:02:49;;;;;;;;;;;20.30;35.30;;;;;;482624;246;1599;-47
2021/12/20 00:04:52;;;;;;;;;;;20.40;35.30;;;;;;482357;246;1063;-46
2021/12/20 00:06:52;;;;;;;;;;;20.40;35.30;;;;;;482314;247;2097;-46
2021/12/20 00:08:53;;;;;;;;;;;20.30;35.30;;;;;;482251;246;2200;-46
2021/12/20 00:10:55;;;;;;;;;;;20.30;35.30;;;;;;482466;246;1263;-47
2021/12/20 00:12:56;;;;;;;;;;;20.30;35.20;;;;;;482430;246;1259;-46
2021/12/20 00:14:57;;;;;;;;;;;20.30;35.30;;;;;;482206;246;1214;-46
2021/12/20 00:16:59;;;;;;;;;;;20.30;35.20;;;;;;482073;246;1216;-46
2021/12/20 00:19:00;;;;;;;;;;;20.30;35.30;;;;;;482435;246;1212;-46
2021/12/20 00:21:01;;;;;;;;;;;20.30;35.30;;;;;;482152;246;1583;-46
2021/12/20 00:23:04;;;;;;;;;;;20.30;35.30;;;;;;482595;246;1239;-46
2021/12/20 00:25:04;;;;;;;;;;;20.30;35.30;;;;;;482221;246;1508;-46
2021/12/20 00:27:07;;;;;;;;;;;20.30;35.30;;;;;;482129;246;1172;-46
2021/12/20 00:29:06;;;;;;;;;;;20.30;35.30;;;;;;482151;247;2415;-46
2021/12/20 00:31:08;;;;;;;;;;;20.30;35.40;;;;;;482292;246;1286;-46
2021/12/20 00:33:09;;;;;;;;;;;20.30;35.30;;;;;;482256;246;1252;-46
2021/12/20 00:35:12;;;;;;;;;;;20.30;35.30;;;;;;482282;246;1022;-46
2021/12/20 00:41:52;;;;;;;;;;;20.30;35.30;;;;;;482033;247;1342;-46
2021/12/20 00:43:53;;;;;;;;;;;20.20;35.30;;;;;;482259;246;1505;-46
2021/12/20 00:45:55;;;;;;;;;;;20.20;35.30;;;;;;482291;243;1491;-46
2021/12/20 00:47:56;;;;;;;;;;;20.30;35.40;;;;;;482305;246;1157;-46
2021/12/20 00:49:57;;;;;;;;;;;20.20;35.30;;;;;;482215;246;2125;-46
2021/12/20 00:51:59;;;;;;;;;;;20.20;35.40;;;;;;482270;246;1877;-46
2021/12/20 00:54:00;;;;;;;;;;;20.20;35.40;;;;;;482307;246;1115;-46
2021/12/20 00:56:01;;;;;;;;;;;20.30;35.40;;;;;;482196;246;1419;-46
2021/12/20 00:58:02;;;;;;;;;;;20.30;35.40;;;;;;482581;246;1212;-46
2021/12/20 01:00:04;;;;;;;;;;;20.30;35.40;;;;;;482717;246;1301;-45
2021/12/20 01:02:05;;;;;;;;;;;20.20;35.30;;;;;;482442;246;1188;-46
2021/12/20 01:04:07;;;;;;;;;;;20.20;35.40;;;;;;482415;246;1224;-46
2021/12/20 01:06:08;;;;;;;;;;;20.20;35.40;;;;;;482520;246;1150;-46
2021/12/20 01:08:09;;;;;;;;;;;20.20;35.50;;;;;;482234;246;1282;-46
2021/12/20 01:10:11;;;;;;;;;;;20.20;35.40;;;;;;482491;246;2129;-46
2021/12/20 01:12:17;;;;;;;;;;;20.20;35.40;;;;;;482363;246;1222;-46
2021/12/20 01:14:21;;;;;;;;;;;20.20;35.50;;;;;;481966;247;2139;-47
2021/12/20 01:16:15;;;;;;;;;;;20.20;35.40;;;;;;481890;247;2400;-46
2021/12/20 01:18:16;;;;;;;;;;;20.20;35.40;;;;;;482362;246;1069;-46
2021/12/20 01:20:17;;;;;;;;;;;20.20;35.40;;;;;;482284;246;1339;-45
2021/12/20 01:22:19;;;;;;;;;;;20.20;35.40;;;;;;482210;246;1195;-46
2021/12/20 01:24:20;;;;;;;;;;;20.20;35.40;;;;;;482211;246;1460;-46
2021/12/20 01:26:21;;;;;;;;;;;20.20;35.30;;;;;;482396;243;1152;-47
2021/12/20 01:28:23;;;;;;;;;;;20.20;35.40;;;;;;482247;246;1157;-47
2021/12/20 01:30:24;;;;;;;;;;;20.20;35.40;;;;;;482253;246;2189;-46
2021/12/20 01:32:25;;;;;;;;;;;20.20;35.40;;;;;;482289;246;1228;-46
2021/12/20 01:34:27;;;;;;;;;;;20.10;35.40;;;;;;482532;246;1226;-46
2021/12/20 01:36:28;;;;;;;;;;;20.20;35.50;;;;;;482367;246;1195;-46
2021/12/20 01:38:29;;;;;;;;;;;20.20;35.40;;;;;;482238;246;1226;-46
2021/12/20 01:40:31;;;;;;;;;;;20.20;35.40;;;;;;482381;246;1524;-46
2021/12/20 01:42:34;;;;;;;;;;;20.10;35.40;;;;;;482358;246;1183;-46
2021/12/20 01:44:33;;;;;;;;;;;20.20;35.50;;;;;;482134;247;2562;-46
2021/12/20 01:46:34;;;;;;;;;;;20.10;35.40;;;;;;482152;246;1353;-46
2021/12/20 01:48:37;;;;;;;;;;;20.20;35.50;;;;;;482632;246;1118;-46
2021/12/20 01:50:49;;;;;;;;;;;20.20;35.40;;;;;;482383;247;2430;-46
2021/12/20 01:52:43;;;;;;;;;;;20.40;35.10;;;;;;482085;247;1397;-46
2021/12/20 01:54:44;;;;;;;;;;;20.60;34.70;;;;;;482177;246;2289;-47
2021/12/20 01:56:45;;;;;;;;;;;20.80;34.40;;;;;;482140;246;1306;-47
2021/12/20 01:58:46;;;;;;;;;;;20.90;34.10;;;;;;482329;246;1198;-46
2021/12/20 02:03:17;;;;;;;;;;;21.10;33.70;;;;;;475950;247;1638;-47
2021/12/20 02:05:23;;;;;;;;;;;21.30;33.60;;;;;;482600;246;1141;-47
2021/12/20 02:07:35;;;;;;;;;;;21.30;33.50;;;;;;481961;247;1721;-47
2021/12/20 02:09:32;;;;;;;;;;;21.30;33.40;;;;;;482414;247;1345;-47
2021/12/20 02:11:33;;;;;;;;;;;21.40;33.40;;;;;;482553;246;1677;-46
2021/12/20 02:13:34;;;;;;;;;;;21.40;33.30;;;;;;482329;246;1087;-46
2021/12/20 02:15:35;;;;;;;;;;;21.40;33.20;;;;;;482230;246;1293;-47
2021/12/20 02:17:37;;;;;;;;;;;21.50;33.10;;;;;;482283;246;1702;-47
2021/12/20 02:19:38;;;;;;;;;;;21.60;33.10;;;;;;482281;246;1063;-46
2021/12/20 02:21:40;;;;;;;;;;;21.60;33.00;;;;;;482187;246;1552;-46
2021/12/20 02:23:41;;;;;;;;;;;21.60;32.90;;;;;;482232;246;1128;-46
2021/12/20 02:25:42;;;;;;;;;;;21.70;32.90;;;;;;482246;246;1230;-46
2021/12/20 02:27:44;;;;;;;;;;;21.70;32.90;;;;;;482640;246;1214;-46
2021/12/20 02:29:59;;;;;;;;;;;21.70;32.90;;;;;;482635;246;2138;-46
2021/12/20 02:38:44;;;;;;;;;;;21.80;32.70;;;;;;482403;247;1045;-46
2021/12/20 02:40:46;;;;;;;;;;;21.80;32.70;;;;;;482539;240;1173;-46
2021/12/20 02:42:48;;;;;;;;;;;21.90;32.70;;;;;;482130;246;2001;-47
2021/12/20 02:44:50;;;;;;;;;;;21.90;32.60;;;;;;482191;247;2080;-46
2021/12/20 02:46:51;;;;;;;;;;;21.90;32.60;;;;;;482011;246;2349;-46
2021/12/20 02:48:51;;;;;;;;;;;21.90;32.60;;;;;;482593;247;2525;-46
2021/12/20 02:50:52;;;;;;;;;;;21.90;32.60;;;;;;482180;246;2197;-47
2021/12/20 02:52:53;;;;;;;;;;;21.90;32.60;;;;;;482235;246;1142;-47
2021/12/20 02:54:55;;;;;;;;;;;21.90;32.60;;;;;;482399;246;1120;-46
2021/12/20 02:56:56;;;;;;;;;;;22.00;32.60;;;;;;482234;246;1146;-46
2021/12/20 02:58:57;;;;;;;;;;;22.00;32.50;;;;;;482572;246;1199;-46
2021/12/20 03:00:59;;;;;;;;;;;22.00;32.50;;;;;;482137;243;1275;-47
2021/12/20 03:03:00;;;;;;;;;;;22.00;32.50;;;;;;482218;246;1227;-47
2021/12/20 03:05:01;;;;;;;;;;;22.10;32.50;;;;;;482310;246;1061;-46
2021/12/20 03:07:03;;;;;;;;;;;22.10;32.50;;;;;;482143;246;1283;-47
2021/12/20 03:09:04;;;;;;;;;;;22.10;32.40;;;;;;482701;246;1105;-47
2021/12/20 03:11:05;;;;;;;;;;;22.10;32.40;;;;;;482562;246;2122;-47
2021/12/20 03:13:07;;;;;;;;;;;22.10;32.40;;;;;;482218;246;1249;-46
2021/12/20 03:15:12;;;;;;;;;;;22.10;32.30;;;;;;482743;246;1114;-46
2021/12/20 03:17:10;;;;;;;;;;;22.10;32.40;;;;;;481936;247;2865;-47
2021/12/20 03:19:12;;;;;;;;;;;22.10;32.30;;;;;;482285;246;1206;-46
2021/12/20 03:21:13;;;;;;;;;;;22.10;32.30;;;;;;482595;246;1359;-46
2021/12/20 03:23:15;;;;;;;;;;;22.20;32.30;;;;;;482372;246;1217;-47
2021/12/20 03:25:17;;;;;;;;;;;22.20;32.30;;;;;;482273;246;1077;-46
2021/12/20 03:27:17;;;;;;;;;;;22.20;32.30;;;;;;482155;247;2051;-46
2021/12/20 03:29:19;;;;;;;;;;;22.20;32.30;;;;;;482754;246;1021;-46
2021/12/20 03:31:20;;;;;;;;;;;22.20;32.30;;;;;;482178;246;2199;-47
2021/12/20 03:33:21;;;;;;;;;;;22.20;32.20;;;;;;482309;246;1221;-46
2021/12/20 03:35:23;;;;;;;;;;;22.20;32.20;;;;;;482542;246;1572;-47
2021/12/20 03:37:24;;;;;;;;;;;22.20;32.20;;;;;;482292;246;1191;-47
2021/12/20 03:39:25;;;;;;;;;;;22.20;32.20;;;;;;482303;246;1129;-45
2021/12/20 03:41:27;;;;;;;;;;;22.30;32.30;;;;;;482154;246;1186;-47
2021/12/20 03:43:31;;;;;;;;;;;22.30;32.20;;;;;;482558;246;1220;-47
2021/12/20 03:45:29;;;;;;;;;;;22.30;32.20;;;;;;482136;247;2301;-46
2021/12/20 03:47:31;;;;;;;;;;;22.30;32.20;;;;;;482187;246;1167;-47
2021/12/20 03:49:32;;;;;;;;;;;22.30;32.20;;;;;;482766;246;1050;-47
2021/12/20 03:51:33;;;;;;;;;;;22.30;32.20;;;;;;482345;246;2192;-46
2021/12/20 03:53:35;;;;;;;;;;;22.30;32.20;;;;;;482289;246;1102;-47
2021/12/20 03:55:36;;;;;;;;;;;22.30;32.20;;;;;;482270;246;1558;-47
2021/12/20 03:57:37;;;;;;;;;;;22.30;32.20;;;;;;482674;246;1193;-47
2021/12/20 03:59:39;;;;;;;;;;;22.30;32.20;;;;;;482741;246;1212;-47
2021/12/20 04:01:40;;;;;;;;;;;22.30;32.20;;;;;;482415;246;1218;-47
2021/12/20 04:03:41;;;;;;;;;;;22.30;32.10;;;;;;482313;246;1206;-47
2021/12/20 04:05:42;;;;;;;;;;;22.40;32.20;;;;;;482590;246;1050;-47
2021/12/20 04:07:44;;;;;;;;;;;22.40;32.10;;;;;;482281;246;1197;-47
2021/12/20 04:09:45;;;;;;;;;;;22.40;32.10;;;;;;482482;246;1017;-46
2021/12/20 04:11:46;;;;;;;;;;;22.40;32.10;;;;;;482204;246;2121;-46
2021/12/20 04:13:48;;;;;;;;;;;22.40;32.10;;;;;;482362;246;1118;-46
2021/12/20 04:15:49;;;;;;;;;;;22.40;32.10;;;;;;482647;246;1279;-47
2021/12/20 04:17:50;;;;;;;;;;;22.40;32.10;;;;;;482435;246;1287;-47
2021/12/20 04:19:52;;;;;;;;;;;22.40;32.10;;;;;;482515;246;1179;-47
2021/12/20 04:21:53;;;;;;;;;;;22.40;32.10;;;;;;482235;246;1230;-46
2021/12/20 04:23:54;;;;;;;;;;;22.40;32.10;;;;;;482538;246;1251;-46
2021/12/20 04:25:56;;;;;;;;;;;22.50;32.10;;;;;;482231;246;1360;-47
2021/12/20 04:27:57;;;;;;;;;;;22.50;32.10;;;;;;482540;246;1547;-47
2021/12/20 04:29:58;;;;;;;;;;;22.50;32.10;;;;;;482470;246;1071;-47
2021/12/20 04:32:00;;;;;;;;;;;22.40;32.00;;;;;;482103;246;2137;-47
2021/12/20 04:34:01;;;;;;;;;;;22.40;32.00;;;;;;482272;246;1173;-47
2021/12/20 04:36:03;;;;;;;;;;;22.50;32.10;;;;;;482387;243;1186;-46
2021/12/20 04:38:05;;;;;;;;;;;22.50;32.10;;;;;;482220;246;1275;-46
2021/12/20 04:40:09;;;;;;;;;;;22.50;32.10;;;;;;482435;246;2268;-47
2021/12/20 04:42:08;;;;;;;;;;;22.50;32.00;;;;;;482023;247;2206;-47
2021/12/20 04:44:08;;;;;;;;;;;22.50;32.00;;;;;;482620;246;2023;-47
2021/12/20 04:46:09;;;;;;;;;;;22.50;32.00;;;;;;482125;246;1160;-46
2021/12/20 04:48:11;;;;;;;;;;;22.50;32.00;;;;;;482167;246;1182;-47
2021/12/20 04:50:12;;;;;;;;;;;22.50;32.00;;;;;;482695;246;1262;-47
2021/12/20 04:52:14;;;;;;;;;;;22.50;32.00;;;;;;482227;246;2174;-47
2021/12/20 04:54:15;;;;;;;;;;;22.60;32.00;;;;;;482271;246;1104;-47
2021/12/20 04:56:16;;;;;;;;;;;22.60;32.00;;;;;;482530;246;1424;-47
2021/12/20 04:58:18;;;;;;;;;;;22.60;32.00;;;;;;482262;246;1246;-47
2021/12/20 05:00:19;;;;;;;;;;;22.60;32.00;;;;;;482271;246;1420;-46
2021/12/20 05:02:20;;;;;;;;;;;22.60;32.00;;;;;;482035;246;1287;-47
2021/12/20 05:04:22;;;;;;;;;;;22.60;32.00;;;;;;482203;246;1239;-47
2021/12/20 05:06:23;;;;;;;;;;;22.60;32.00;;;;;;482044;246;1487;-47
2021/12/20 05:08:32;;;;;;;;;;;22.60;32.00;;;;;;482258;246;1210;-47
2021/12/20 05:10:28;;;;;;;;;;;22.60;32.00;;;;;;481698;247;2439;-46
2021/12/20 05:12:28;;;;;;;;;;;22.60;32.00;;;;;;481896;247;2151;-47
2021/12/20 05:14:29;;;;;;;;;;;22.60;32.00;;;;;;482240;246;1280;-47
2021/12/20 05:16:30;;;;;;;;;;;22.60;32.00;;;;;;482317;246;1266;-47
2021/12/20 05:18:31;;;;;;;;;;;22.60;32.00;;;;;;482229;246;1212;-47
2021/12/20 05:20:33;;;;;;;;;;;22.60;31.90;;;;;;482286;246;1008;-46
2021/12/20 05:22:34;;;;;;;;;;;22.60;31.90;;;;;;482121;246;1202;-47
2021/12/20 05:24:35;;;;;;;;;;;22.70;32.00;;;;;;482218;246;1082;-47
2021/12/20 05:26:37;;;;;;;;;;;22.70;31.90;;;;;;482092;246;1206;-47
2021/12/20 05:28:38;;;;;;;;;;;22.70;31.90;;;;;;482263;246;1249;-47
2021/12/20 05:30:39;;;;;;;;;;;22.70;31.90;;;;;;482454;246;1268;-47
2021/12/20 05:32:41;;;;;;;;;;;22.60;32.00;;;;;;482251;246;2196;-46
2021/12/20 05:34:42;;;;;;;;;;;22.50;32.10;;;;;;482580;246;1024;-46
2021/12/20 05:36:43;;;;;;;;;;;22.20;32.40;;;;;;482349;246;1627;-46
2021/12/20 05:38:45;;;;;;;;;;;22.10;32.90;;;;;;482417;246;1255;-47
2021/12/20 05:40:46;;;;;;;;;;;21.80;33.10;;;;;;482217;246;1112;-46
2021/12/20 05:42:48;;;;;;;;;;;21.70;33.40;;;;;;482162;246;1233;-46
2021/12/20 05:44:50;;;;;;;;;;;21.60;33.60;;;;;;482204;246;1416;-46
2021/12/20 05:46:52;;;;;;;;;;;21.60;33.80;;;;;;482044;246;1425;-46
2021/12/20 05:48:52;;;;;;;;;;;21.40;33.90;;;;;;482294;246;2450;-46
2021/12/20 05:50:54;;;;;;;;;;;21.40;34.10;;;;;;482201;246;2197;-46
2021/12/20 05:52:55;;;;;;;;;;;21.30;34.10;;;;;;482627;246;1356;-47
2021/12/20 05:54:56;;;;;;;;;;;21.30;34.20;;;;;;482551;246;1498;-46
2021/12/20 05:56:58;;;;;;;;;;;21.20;34.30;;;;;;482180;246;1225;-46
2021/12/20 05:58:59;;;;;;;;;;;21.20;34.30;;;;;;482582;246;1288;-46
2021/12/20 06:01:00;;;;;;;;;;;21.20;34.40;;;;;;482523;246;1298;-46
2021/12/20 06:03:02;;;;;;;;;;;21.20;34.30;;;;;;482606;246;1228;-47
2021/12/20 06:05:03;;;;;;;;;;;21.10;34.40;;;;;;482179;246;1087;-46
2021/12/20 06:07:04;;;;;;;;;;;21.10;34.50;;;;;;482068;246;1476;-46
2021/12/20 06:09:05;;;;;;;;;;;21.00;34.50;;;;;;482441;246;1030;-46
2021/12/20 06:11:07;;;;;;;;;;;21.10;34.60;;;;;;482016;246;2205;-46
2021/12/20 06:13:08;;;;;;;;;;;21.00;34.60;;;;;;482345;246;1222;-46
2021/12/20 06:15:09;;;;;;;;;;;21.00;34.70;;;;;;482171;246;1143;-47
2021/12/20 06:17:11;;;;;;;;;;;20.90;34.70;;;;;;482095;246;1370;-47
2021/12/20 06:19:12;;;;;;;;;;;20.90;34.70;;;;;;482067;246;1131;-46
2021/12/20 06:21:13;;;;;;;;;;;20.90;34.70;;;;;;482243;246;1458;-46
2021/12/20 06:23:15;;;;;;;;;;;20.90;34.70;;;;;;482531;246;1061;-46
2021/12/20 06:25:16;;;;;;;;;;;20.90;34.70;;;;;;482192;246;1054;-46
2021/12/20 06:27:17;;;;;;;;;;;20.90;34.80;;;;;;482088;246;1227;-46
2021/12/20 06:29:19;;;;;;;;;;;20.90;34.90;;;;;;482143;246;1296;-46
2021/12/20 06:31:20;;;;;;;;;;;20.80;34.90;;;;;;481972;246;2192;-47
2021/12/20 06:33:21;;;;;;;;;;;20.80;34.90;;;;;;482080;246;1700;-46
2021/12/20 06:35:22;;;;;;;;;;;20.80;35.00;;;;;;482099;246;1155;-46
2021/12/20 06:37:24;;;;;;;;;;;20.80;34.90;;;;;;481908;246;1298;-46
2021/12/20 06:39:25;;;;;;;;;;;20.80;35.00;;;;;;482063;246;1188;-46
2021/12/20 06:41:26;;;;;;;;;;;20.80;35.00;;;;;;481948;246;1162;-46
2021/12/20 06:43:30;;;;;;;;;;;20.80;34.90;;;;;;482281;246;1017;-46
2021/12/20 06:45:29;;;;;;;;;;;20.80;35.00;;;;;;481787;247;1465;-46
2021/12/20 06:47:31;;;;;;;;;;;20.70;34.90;;;;;;482003;246;1283;-46
2021/12/20 06:49:32;;;;;;;;;;;20.70;34.90;;;;;;482020;246;1256;-46
2021/12/20 06:51:34;;;;;;;;;;;20.70;35.00;;;;;;482004;246;2122;-45
2021/12/20 06:53:35;;;;;;;;;;;20.70;35.00;;;;;;482054;246;2351;-46
2021/12/20 06:55:36;;;;;;;;;;;20.70;35.10;;;;;;481995;246;1128;-46
2021/12/20 06:57:39;;;;;;;;;;;20.70;35.10;;;;;;481872;246;1171;-47
2021/12/20 06:59:39;;;;;;;;;;;20.70;35.10;;;;;;482053;246;2586;-47
2021/12/20 07:01:41;;;;;;;;;;;20.70;35.10;;;;;;481908;246;1218;-46
2021/12/20 07:03:43;;;;;;;;;;;20.70;35.10;;;;;;482039;246;1204;-46
2021/12/20 07:05:43;;;;;;;;;;;20.70;35.00;;;;;;481966;247;2250;-46
2021/12/20 07:07:45;;;;;;;;;;;20.70;35.10;;;;;;481885;246;1190;-46
2021/12/20 07:09:46;;;;;;;;;;;20.60;35.10;;;;;;482038;246;1036;-47
2021/12/20 07:11:47;;;;;;;;;;;20.60;35.20;;;;;;481800;246;2196;-46
2021/12/20 07:13:49;;;;;;;;;;;20.50;35.20;;;;;;481880;246;1129;-46
2021/12/20 07:15:50;;;;;;;;;;;20.60;35.20;;;;;;481727;246;2041;-46
2021/12/20 07:17:51;;;;;;;;;;;20.60;35.20;;;;;;481802;246;1174;-46
2021/12/20 07:19:53;;;;;;;;;;;20.60;35.20;;;;;;481818;246;1181;-46
2021/12/20 07:21:54;;;;;;;;;;;20.60;35.10;;;;;;481715;246;1207;-46
2021/12/20 07:23:56;;;;;;;;;;;20.60;35.10;;;;;;481788;246;1077;-46
2021/12/20 07:25:57;;;;;;;;;;;20.60;35.10;;;;;;481820;246;1135;-46
2021/12/20 07:27:58;;;;;;;;;;;20.60;35.10;;;;;;481724;246;1153;-46
2021/12/20 07:30:00;;;;;;;;;;;20.60;35.10;;;;;;481894;246;1043;-46
2021/12/20 07:32:01;;;;;;;;;;;20.60;35.10;;;;;;481798;246;2196;-46
2021/12/20 07:34:02;;;;;;;;;;;20.60;35.10;;;;;;482031;246;1222;-46
2021/12/20 07:36:04;;;;;;;;;;;20.60;35.10;;;;;;481833;246;1500;-46
2021/12/20 07:38:06;;;;;;;;;;;20.60;35.10;;;;;;481813;246;1170;-47
2021/12/20 07:40:07;;;;;;;;;;;20.50;35.20;;;;;;481850;247;2278;-46
2021/12/20 07:42:08;;;;;;;;;;;20.60;35.10;;;;;;481732;246;2350;-46
2021/12/20 07:44:09;;;;;;;;;;;20.60;35.10;;;;;;481911;246;1118;-46
2021/12/20 07:46:10;;;;;;;;;;;20.50;35.10;;;;;;481990;246;1318;-46
2021/12/20 07:48:12;;;;;;;;;;;20.50;35.10;;;;;;482039;246;1226;-46
2021/12/20 07:50:13;;;;;;;;;;;20.50;35.10;;;;;;481735;246;1176;-46
2021/12/20 07:52:14;;;;;;;;;;;20.60;35.00;;;;;;481762;246;2129;-46
2021/12/20 07:54:16;;;;;;;;;;;20.50;35.10;;;;;;481757;246;1208;-46
2021/12/20 07:56:18;;;;;;;;;;;20.50;35.10;;;;;;481856;246;1201;-46
2021/12/20 07:58:20;;;;;;;;;;;20.60;35.10;;;;;;481804;246;2110;-46
2021/12/20 08:00:20;;;;;;;;;;;20.60;35.00;;;;;;481737;247;2348;-46
2021/12/20 08:02:21;;;;;;;;;;;20.60;35.00;;;;;;481780;246;1359;-46
2021/12/20 08:04:22;;;;;;;;;;;20.60;35.00;;;;;;481693;246;1159;-46
2021/12/20 08:06:24;;;;;;;;;;;20.60;35.00;;;;;;481666;246;1350;-46
2021/12/20 08:08:25;;;;;;;;;;;20.50;35.00;;;;;;481555;246;1222;-46
2021/12/20 08:10:27;;;;;;;;;;;20.50;35.00;;;;;;481911;246;1083;-46
2021/12/20 08:12:28;;;;;;;;;;;20.50;35.00;;;;;;481700;246;2216;-46
2021/12/20 08:14:29;;;;;;;;;;;20.40;35.10;;;;;;481796;246;1096;-46
2021/12/20 08:16:30;;;;;;;;;;;20.50;35.10;;;;;;481775;246;1214;-46
2021/12/20 08:18:31;;;;;;;;;;;20.40;35.10;;;;;;481821;246;1448;-46
2021/12/20 08:20:33;;;;;;;;;;;20.40;35.10;;;;;;481787;246;1599;-46
2021/12/20 08:22:34;;;;;;;;;;;20.40;35.00;;;;;;481672;246;1167;-46
2021/12/20 08:24:36;;;;;;;;;;;20.50;35.10;;;;;;481853;246;1044;-46
2021/12/20 08:26:37;;;;;;;;;;;20.40;35.00;;;;;;481827;246;1344;-46
2021/12/20 08:28:38;;;;;;;;;;;20.40;35.00;;;;;;481783;246;1278;-46
2021/12/20 08:30:39;;;;;;;;;;;20.50;35.10;;;;;;481655;246;1406;-46
2021/12/20 08:32:41;;;;;;;;;;;20.40;35.10;;;;;;481831;246;2126;-46
2021/12/20 08:34:42;;;;;;;;;;;20.40;35.00;;;;;;481882;246;1062;-46
2021/12/20 08:36:43;;;;;;;;;;;20.40;35.10;;;;;;481470;246;1222;-46
2021/12/20 08:38:45;;;;;;;;;;;20.40;35.00;;;;;;481687;246;1363;-46
2021/12/20 08:40:46;;;;;;;;;;;20.40;35.00;;;;;;481861;246;1424;-46
2021/12/20 08:42:47;;;;;;;;;;;20.40;35.10;;;;;;481720;246;1121;-46
2021/12/20 08:44:49;;;;;;;;;;;20.40;35.10;;;;;;481712;246;1080;-46
2021/12/20 08:46:50;;;;;;;;;;;20.40;35.10;;;;;;481808;246;1504;-46
2021/12/20 08:48:56;;;;;;;;;;;20.40;35.10;;;;;;481733;246;1062;-46
2021/12/20 08:50:53;;;;;;;;;;;20.40;35.10;;;;;;481363;247;2360;-46
2021/12/20 08:52:54;;;;;;;;;;;20.40;35.00;;;;;;481923;246;2185;-46
2021/12/20 08:54:56;;;;;;;;;;;20.40;35.00;;;;;;481801;246;1127;-46
2021/12/20 08:56:57;;;;;;;;;;;20.40;35.00;;;;;;481722;246;1301;-46
2021/12/20 08:58:58;;;;;;;;;;;20.40;35.00;;;;;;481784;246;1103;-46
2021/12/20 09:01:00;;;;;;;;;;;20.40;35.00;;;;;;481610;246;1385;-46
2021/12/20 09:03:01;;;;;;;;;;;20.40;34.90;;;;;;481725;246;1106;-46
2021/12/20 09:05:02;;;;;;;;;;;20.40;34.90;;;;;;481750;246;1111;-46
2021/12/20 09:07:04;;;;;;;;;;;20.30;35.00;;;;;;481735;246;1524;-46
2021/12/20 09:09:05;;;;;;;;;;;20.40;35.00;;;;;;481969;246;1221;-46
2021/12/20 09:11:06;;;;;;;;;;;20.30;35.00;;;;;;481500;246;1166;-45
2021/12/20 09:13:08;;;;;;;;;;;20.30;35.00;;;;;;481555;246;2201;-47
2021/12/20 09:15:09;;;;;;;;;;;20.40;35.00;;;;;;481682;246;1252;-46
2021/12/20 09:17:10;;;;;;;;;;;20.30;35.00;;;;;;481622;246;1289;-46
2021/12/20 09:19:12;;;;;;;;;;;20.40;35.00;;;;;;481748;246;1114;-46
2021/12/20 09:21:13;;;;;;;;;;;20.40;35.00;;;;;;481809;246;1264;-46
2021/12/20 09:23:14;;;;;;;;;;;20.40;35.00;;;;;;481905;246;1136;-46
2021/12/20 09:25:16;;;;;;;;;;;20.40;35.00;;;;;;481800;246;1066;-46
2021/12/20 09:27:17;;;;;;;;;;;20.40;34.80;;;;;;481664;246;1154;-47
2021/12/20 09:29:19;;;;;;;;;;;20.40;34.90;;;;;;481746;246;1118;-47
2021/12/20 09:31:20;;;;;;;;;;;20.40;34.90;;;;;;481604;246;1399;-46
2021/12/20 09:33:21;;;;;;;;;;;20.40;34.80;;;;;;481683;246;2184;-46
2021/12/20 09:35:22;;;;;;;;;;;20.30;34.90;;;;;;481689;246;1222;-46
2021/12/20 09:37:24;;;;;;;;;;;20.30;34.90;;;;;;481770;246;1222;-46
2021/12/20 09:39:25;;;;;;;;;;;20.30;35.00;;;;;;481854;246;1067;-46
2021/12/20 09:43:58;;;;;;;;;;;20.30;35.00;;;;;;475261;247;1655;-46
2021/12/20 09:45:57;;;;;;;;;;;20.30;34.90;;;;;;481578;246;2127;-46
2021/12/20 09:47:59;;;;;;;;;;;20.30;35.00;;;;;;481704;246;1146;-46
2021/12/20 09:50:00;;;;;;;;;;;20.30;35.00;;;;;;481723;246;1178;-46
2021/12/20 09:52:01;;;;;;;;;;;20.30;35.00;;;;;;481720;246;1278;-46
2021/12/20 09:54:03;;;;;;;;;;;20.30;35.00;;;;;;481787;246;2184;-46
2021/12/20 09:56:04;;;;;;;;;;;20.30;35.00;;;;;;481680;246;1963;-46
2021/12/20 09:58:05;;;;;;;;;;;20.30;35.00;;;;;;481743;246;1246;-46
2021/12/20 10:00:07;;;;;;;;;;;20.30;35.00;;;;;;481475;246;1240;-46
2021/12/20 10:02:08;;;;;;;;;;;20.20;35.00;;;;;;481627;246;1245;-46
2021/12/20 10:04:09;;;;;;;;;;;20.20;35.00;;;;;;481599;246;1199;-46
2021/12/20 10:06:11;;;;;;;;;;;20.20;35.00;;;;;;481646;246;1247;-46
2021/12/20 10:08:15;;;;;;;;;;;20.20;35.00;;;;;;481743;246;1174;-47
2021/12/20 10:10:14;;;;;;;;;;;20.30;35.00;;;;;;481566;246;1731;-46
2021/12/20 10:12:15;;;;;;;;;;;20.30;34.80;;;;;;481698;246;1257;-47
2021/12/20 10:14:17;;;;;;;;;;;20.30;34.90;;;;;;481667;246;2121;-46
2021/12/20 10:16:18;;;;;;;;;;;20.30;34.90;;;;;;481375;246;1256;-45
2021/12/20 10:18:19;;;;;;;;;;;20.30;34.80;;;;;;481534;246;1100;-46
2021/12/20 10:20:22;;;;;;;;;;;20.30;35.00;;;;;;481634;246;1191;-46
2021/12/20 10:22:22;;;;;;;;;;;20.20;34.90;;;;;;481576;246;2683;-46
2021/12/20 10:24:23;;;;;;;;;;;20.20;34.90;;;;;;481610;246;1147;-46
2021/12/20 10:26:25;;;;;;;;;;;20.30;35.00;;;;;;481681;246;1430;-46
2021/12/20 10:28:26;;;;;;;;;;;20.20;35.00;;;;;;481667;246;1062;-46
2021/12/20 10:30:27;;;;;;;;;;;20.20;34.90;;;;;;481795;246;1294;-47
2021/12/20 10:32:29;;;;;;;;;;;20.20;34.90;;;;;;481679;246;2133;-46
2021/12/20 10:34:30;;;;;;;;;;;20.20;34.90;;;;;;481910;246;1139;-46
2021/12/20 10:36:32;;;;;;;;;;;20.20;34.90;;;;;;481540;246;1202;-46
2021/12/20 10:38:33;;;;;;;;;;;20.20;35.00;;;;;;481774;246;1719;-46
2021/12/20 10:40:35;;;;;;;;;;;20.20;34.90;;;;;;481766;246;1180;-46
2021/12/20 10:42:36;;;;;;;;;;;20.20;34.90;;;;;;481794;246;1349;-46
2021/12/20 10:44:37;;;;;;;;;;;20.20;34.90;;;;;;481727;246;1128;-46
2021/12/20 10:46:39;;;;;;;;;;;20.20;34.90;;;;;;481765;246;1206;-46
2021/12/20 10:48:40;;;;;;;;;;;20.20;34.90;;;;;;481770;246;1182;-46
2021/12/20 10:50:43;;;;;;;;;;;20.20;34.90;;;;;;481648;246;1635;-47
2021/12/20 10:52:44;;;;;;;;;;;20.20;35.00;;;;;;481756;246;2200;-46
2021/12/20 10:54:45;;;;;;;;;;;20.20;34.90;;;;;;481676;246;1072;-46
2021/12/20 10:56:47;;;;;;;;;;;20.20;34.90;;;;;;481610;246;1338;-46
2021/12/20 10:58:48;;;;;;;;;;;20.20;34.90;;;;;;481792;246;1284;-46
2021/12/20 11:00:49;;;;;;;;;;;20.20;34.90;;;;;;481547;246;1242;-46
2021/12/20 11:03:19;;;;;;;;;;;20.20;35.00;;;;;;481884;246;1137;-46
2021/12/20 11:05:12;;;;;;;;;;;20.20;34.90;;;;;;481049;247;2105;-46
2021/12/20 11:09:31;;;;;;;;;;;20.20;34.90;;;;;;481682;247;1204;-46
2021/12/20 11:11:33;;;;;;;;;;;20.20;34.80;;;;;;481574;246;1203;-47
2021/12/20 11:13:34;;;;;;;;;;;20.40;34.50;;;;;;481556;246;2188;-46
2021/12/20 11:15:36;;;;;;;;;;;20.60;34.00;;;;;;481760;246;1323;-47
2021/12/20 11:17:37;;;;;;;;;;;20.90;33.70;;;;;;481705;246;1329;-47
2021/12/20 11:19:38;;;;;;;;;;;21.00;33.40;;;;;;481845;246;1115;-46
2021/12/20 11:21:40;;;;;;;;;;;21.10;33.20;;;;;;481601;246;1342;-46
2021/12/20 11:23:41;;;;;;;;;;;21.20;33.00;;;;;;481526;246;1345;-46
2021/12/20 11:25:42;;;;;;;;;;;21.30;32.90;;;;;;481640;246;1329;-47
2021/12/20 11:27:46;;;;;;;;;;;21.30;32.80;;;;;;481695;246;1172;-47
2021/12/20 11:29:45;;;;;;;;;;;21.30;32.60;;;;;;481669;247;2010;-47
2021/12/20 11:31:46;;;;;;;;;;;21.40;32.50;;;;;;481740;246;1357;-47
2021/12/20 11:33:47;;;;;;;;;;;21.40;32.60;;;;;;481581;246;2208;-47
2021/12/20 11:35:49;;;;;;;;;;;21.40;32.50;;;;;;481414;246;1249;-47
2021/12/20 11:37:50;;;;;;;;;;;21.40;32.30;;;;;;481832;246;1300;-47
2021/12/20 11:39:51;;;;;;;;;;;21.50;32.30;;;;;;481960;246;818;-47
2021/12/20 11:41:53;;;;;;;;;;;21.50;32.30;;;;;;481851;246;1100;-46
2021/12/20 11:43:54;;;;;;;;;;;21.50;32.20;;;;;;482462;246;814;-47
2021/12/20 11:45:55;;;;;;;;;;;21.50;32.20;;;;;;482272;246;1170;-47
2021/12/20 11:47:57;;;;;;;;;;;21.60;32.20;;;;;;482335;246;1057;-47
2021/12/20 11:49:58;;;;;;;;;;;21.60;32.10;;;;;;481937;246;842;-47
2021/12/20 11:51:59;;;;;;;;;;;21.60;32.10;;;;;;481730;246;1209;-46
2021/12/20 11:54:01;;;;;;;;;;;21.70;32.10;;;;;;481875;246;2492;-47
2021/12/20 11:56:02;;;;;;;;;;;21.70;32.00;;;;;;481663;246;1384;-47
2021/12/20 11:58:03;;;;;;;;;;;21.70;32.00;;;;;;481613;246;1183;-47
2021/12/20 12:00:05;;;;;;;;;;;21.80;31.90;;;;;;481802;246;1100;-47
2021/12/20 12:02:06;;;;;;;;;;;21.70;31.80;;;;;;481705;246;1252;-47
2021/12/20 12:04:07;;;;;;;;;;;21.80;31.90;;;;;;481738;246;1201;-46
2021/12/20 12:06:10;;;;;;;;;;;21.80;31.80;;;;;;481902;246;1321;-47
2021/12/20 12:08:10;;;;;;;;;;;21.80;31.80;;;;;;481648;247;1816;-47
2021/12/20 12:10:11;;;;;;;;;;;21.80;31.80;;;;;;481604;246;1164;-47
2021/12/20 12:12:15;;;;;;;;;;;21.90;31.80;;;;;;481636;246;1320;-47
2021/12/20 12:14:34;;;;;;;;;;;21.90;31.70;;;;;;482123;247;2201;-46
2021/12/20 12:16:37;;;;;;;;;;;21.90;31.60;;;;;;481520;243;2073;-46